Time;durP1;ratioP1;P1;durP2;ratioP2;P2;SDS_P1;SDS_P2;PMS_P1;PMS_P2;Temp;Humidity;BMP_temperature;BMP_pressure;BME280_temperature;BME280_humidity;BME280_pressure;Samples;Min_cycle;Max_cycle;Signal;HPM_P1;HPM_P2
2022/06/28 00:00:30;;;;;;;1.02;0.63;;;;;;;;;;5033277;28;20036;-63
2022/06/28 00:02:56;;;;;;;0.70;0.60;;;;;;;;;;5032339;28;20029;-62
2022/06/28 00:05:22;;;;;;;1.02;0.45;;;;;;;;;;5033233;28;20056;-62
2022/06/28 00:07:48;;;;;;;0.90;0.60;;;;;;;;;;5031174;28;20029;-62
2022/06/28 00:10:15;;;;;;;1.02;0.90;;;;;;;;;;5033067;28;20053;-61
2022/06/28 00:12:41;;;;;;;0.50;0.50;;;;;;;;;;5032619;28;20091;-62
2022/06/28 00:17:54;;;;;;;0.98;0.57;;;;;;;;;;5032229;28;20060;-61
2022/06/28 00:20:20;;;;;;;0.70;0.60;;;;;;;;;;5032853;28;20045;-62
2022/06/28 00:22:46;;;;;;;2.00;0.70;;;;;;;;;;5032051;28;20035;-56
2022/06/28 00:25:12;;;;;;;0.60;0.50;;;;;;;;;;5021760;28;20026;-62
2022/06/28 00:27:39;;;;;;;0.95;0.70;;;;;;;;;;5032895;28;20041;-61
2022/06/28 00:30:05;;;;;;;0.70;0.55;;;;;;;;;;5031699;28;20040;-60
2022/06/28 00:32:32;;;;;;;0.60;0.50;;;;;;;;;;5032575;28;20061;-61
2022/06/28 00:34:59;;;;;;;0.50;0.40;;;;;;;;;;5023617;28;20025;-60
2022/06/28 00:37:25;;;;;;;0.63;0.50;;;;;;;;;;5032200;28;20057;-61
2022/06/28 00:39:51;;;;;;;1.13;0.50;;;;;;;;;;5031734;28;20036;-61
2022/06/28 00:42:17;;;;;;;0.60;0.60;;;;;;;;;;5023414;28;20029;-62
2022/06/28 00:44:43;;;;;;;0.77;0.50;;;;;;;;;;5032552;28;20359;-62
2022/06/28 00:47:09;;;;;;;0.60;0.50;;;;;;;;;;5025321;28;20030;-60
2022/06/28 00:49:39;;;;;;;2.47;0.60;;;;;;;;;;5032349;28;20026;-61
2022/06/28 00:52:05;;;;;;;0.85;0.73;;;;;;;;;;5031276;28;20114;-61
2022/06/28 00:54:31;;;;;;;1.63;0.50;;;;;;;;;;5032320;28;20025;-62
2022/06/28 00:56:57;;;;;;;4.93;0.85;;;;;;;;;;5030710;28;20037;-61
2022/06/28 00:59:23;;;;;;;0.73;0.50;;;;;;;;;;5030273;28;20052;-60
2022/06/28 01:01:49;;;;;;;0.50;0.50;;;;;;;;;;5031087;28;20454;-56
2022/06/28 01:04:15;;;;;;;0.68;0.50;;;;;;;;;;5031743;28;20090;-61
2022/06/28 01:06:41;;;;;;;0.90;0.50;;;;;;;;;;5014095;28;20029;-61
2022/06/28 01:09:07;;;;;;;1.23;0.50;;;;;;;;;;5031066;28;20056;-61
2022/06/28 01:11:33;;;;;;;3.50;0.68;;;;;;;;;;5031827;28;20478;-61
2022/06/28 01:14:01;;;;;;;0.95;0.50;;;;;;;;;;5030809;28;20021;-61
2022/06/28 01:16:27;;;;;;;0.70;0.50;;;;;;;;;;5030785;28;20026;-61
2022/06/28 01:18:53;;;;;;;0.98;0.43;;;;;;;;;;5031005;28;20044;-61
2022/06/28 01:21:20;;;;;;;0.50;0.50;;;;;;;;;;5031477;28;20025;-63
2022/06/28 01:23:47;;;;;;;0.43;0.40;;;;;;;;;;5031635;28;20088;-56
2022/06/28 01:26:14;;;;;;;0.50;0.50;;;;;;;;;;5030176;28;20026;-63
2022/06/28 01:28:41;;;;;;;0.50;0.50;;;;;;;;;;5031492;28;20386;-62
2022/06/28 01:31:07;;;;;;;0.70;0.68;;;;;;;;;;5030301;28;20037;-62
2022/06/28 01:33:36;;;;;;;0.70;0.60;;;;;;;;;;5029257;28;20133;-63
2022/06/28 01:36:04;;;;;;;0.90;0.50;;;;;;;;;;5030323;28;20532;-64
2022/06/28 01:38:30;;;;;;;0.75;0.57;;;;;;;;;;5031391;28;20025;-63
2022/06/28 01:40:56;;;;;;;1.58;0.60;;;;;;;;;;5029700;28;20026;-62
2022/06/28 01:43:22;;;;;;;0.75;0.50;;;;;;;;;;5031153;28;20026;-59
2022/06/28 01:45:49;;;;;;;0.77;0.68;;;;;;;;;;5023625;28;20036;-56
2022/06/28 01:48:18;;;;;;;0.50;0.40;;;;;;;;;;5029589;28;20490;-62
2022/06/28 01:50:44;;;;;;;0.47;0.47;;;;;;;;;;5031375;28;20029;-62
2022/06/28 01:53:10;;;;;;;1.23;0.50;;;;;;;;;;5030177;28;20099;-62
2022/06/28 01:55:36;;;;;;;0.80;0.50;;;;;;;;;;5029831;28;20025;-63
2022/06/28 01:58:02;;;;;;;2.03;0.63;;;;;;;;;;5030244;28;20390;-63
2022/06/28 02:00:29;;;;;;;0.40;0.40;;;;;;;;;;5031625;28;20025;-63
2022/06/28 02:02:55;;;;;;;0.50;0.50;;;;;;;;;;5030002;28;20127;-63
2022/06/28 02:05:21;;;;;;;0.60;0.60;;;;;;;;;;5030391;28;20052;-61
2022/06/28 02:07:50;;;;;;;0.50;0.50;;;;;;;;;;5031085;28;20087;-62
2022/06/28 02:10:17;;;;;;;0.45;0.45;;;;;;;;;;5023676;28;20026;-61
2022/06/28 02:12:43;;;;;;;0.60;0.50;;;;;;;;;;5030715;28;20513;-61
2022/06/28 02:15:09;;;;;;;0.60;0.60;;;;;;;;;;5029650;28;20738;-61
2022/06/28 02:17:35;;;;;;;0.75;0.40;;;;;;;;;;5031171;28;20030;-59
2022/06/28 02:20:01;;;;;;;0.50;0.50;;;;;;;;;;5032068;28;20037;-61
2022/06/28 02:22:27;;;;;;;0.60;0.45;;;;;;;;;;5033912;28;20030;-62
2022/06/28 02:24:54;;;;;;;1.55;1.00;;;;;;;;;;5032739;28;20029;-56
2022/06/28 02:27:20;;;;;;;0.63;0.50;;;;;;;;;;5035090;28;20380;-63
2022/06/28 02:29:46;;;;;;;0.55;0.45;;;;;;;;;;5034905;28;20025;-62
2022/06/28 02:32:12;;;;;;;0.60;0.52;;;;;;;;;;5034501;28;20048;-62
2022/06/28 02:40:24;;;;;;;0.90;0.50;;;;;;;;;;5032699;28;20032;-62
2022/06/28 02:42:57;;;;;;;0.82;0.43;;;;;;;;;;5033895;28;20482;-67
2022/06/28 02:45:28;;;;;;;0.57;0.50;;;;;;;;;;5035201;28;20504;-67
2022/06/28 02:47:54;;;;;;;0.40;0.40;;;;;;;;;;5030381;28;20093;-59
2022/06/28 02:50:20;;;;;;;3.35;1.25;;;;;;;;;;5034741;28;20022;-63
2022/06/28 02:52:46;;;;;;;1.55;0.40;;;;;;;;;;5033633;28;20041;-62
2022/06/28 02:55:12;;;;;;;1.00;0.57;;;;;;;;;;5031596;28;20033;-62
2022/06/28 02:57:39;;;;;;;0.85;0.50;;;;;;;;;;5033564;28;20033;-62
2022/06/28 03:00:08;;;;;;;0.75;0.57;;;;;;;;;;5033307;28;20119;-62
2022/06/28 03:02:37;;;;;;;0.63;0.60;;;;;;;;;;5034533;28;20021;-64
2022/06/28 03:05:05;;;;;;;0.40;0.40;;;;;;;;;;5033398;28;20061;-63
2022/06/28 03:07:31;;;;;;;0.75;0.60;;;;;;;;;;5027196;28;20076;-62
2022/06/28 03:09:57;;;;;;;1.65;0.40;;;;;;;;;;5033468;28;20036;-61
2022/06/28 03:12:23;;;;;;;0.93;0.65;;;;;;;;;;5033354;28;20026;-61
2022/06/28 03:14:49;;;;;;;1.35;0.50;;;;;;;;;;5033492;28;20029;-63
2022/06/28 03:17:15;;;;;;;0.60;0.50;;;;;;;;;;5033327;28;20100;-61
2022/06/28 03:19:41;;;;;;;4.00;1.15;;;;;;;;;;5033874;28;20018;-61
2022/06/28 03:22:07;;;;;;;0.70;0.50;;;;;;;;;;5033470;28;20083;-61
2022/06/28 03:24:33;;;;;;;1.02;0.52;;;;;;;;;;5032433;28;20041;-61
2022/06/28 03:26:59;;;;;;;0.70;0.50;;;;;;;;;;5033031;28;20443;-61
2022/06/28 03:29:25;;;;;;;0.40;0.40;;;;;;;;;;5032690;28;20072;-61
2022/06/28 03:31:51;;;;;;;1.88;0.50;;;;;;;;;;5033057;28;20116;-62
2022/06/28 03:34:19;;;;;;;0.80;0.43;;;;;;;;;;5032815;28;20033;-61
2022/06/28 03:36:45;;;;;;;0.45;0.40;;;;;;;;;;5026285;28;20043;-62
2022/06/28 03:39:11;;;;;;;1.00;0.70;;;;;;;;;;5032783;28;20021;-60
2022/06/28 03:41:37;;;;;;;0.80;0.50;;;;;;;;;;5033566;28;20093;-62
2022/06/28 03:44:03;;;;;;;0.80;0.50;;;;;;;;;;5032879;28;20029;-62
2022/06/28 03:46:29;;;;;;;0.47;0.47;;;;;;;;;;5032357;28;20025;-63
2022/06/28 03:48:56;;;;;;;0.80;0.70;;;;;;;;;;5029070;28;20030;-56
2022/06/28 03:51:22;;;;;;;0.55;0.50;;;;;;;;;;5032757;28;20036;-62
2022/06/28 03:53:48;;;;;;;1.23;0.85;;;;;;;;;;5033233;28;20119;-62
2022/06/28 03:56:14;;;;;;;0.68;0.47;;;;;;;;;;5030284;28;20482;-63
2022/06/28 03:58:40;;;;;;;2.10;0.65;;;;;;;;;;5032327;28;20080;-62
2022/06/28 04:01:06;;;;;;;0.75;0.50;;;;;;;;;;5032307;28;20386;-62
2022/06/28 04:03:32;;;;;;;0.75;0.50;;;;;;;;;;5033008;28;20029;-62
2022/06/28 04:05:58;;;;;;;1.65;0.60;;;;;;;;;;5031744;28;20536;-57
2022/06/28 04:08:24;;;;;;;2.22;0.60;;;;;;;;;;5032777;28;20041;-62
2022/06/28 04:11:13;;;;;;;0.60;0.57;;;;;;;;;;5033484;28;20090;-62
2022/06/28 04:13:36;;;;;;;1.17;0.43;;;;;;;;;;5031695;28;20065;-66
2022/06/28 04:16:02;;;;;;;0.40;0.35;;;;;;;;;;5032100;28;20064;-66
2022/06/28 04:18:28;;;;;;;0.75;0.50;;;;;;;;;;5033130;28;20061;-67
2022/06/28 04:20:54;;;;;;;0.57;0.55;;;;;;;;;;5032859;28;20037;-67
2022/06/28 04:23:20;;;;;;;0.90;0.50;;;;;;;;;;5030998;28;20183;-62
2022/06/28 04:25:46;;;;;;;0.70;0.68;;;;;;;;;;5030787;28;20100;-62
2022/06/28 04:28:12;;;;;;;0.50;0.50;;;;;;;;;;5031950;28;20459;-62
2022/06/28 04:30:38;;;;;;;1.90;0.60;;;;;;;;;;5032449;28;20044;-62
2022/06/28 04:33:03;;;;;;;2.78;0.50;;;;;;;;;;5031950;28;20046;-62
2022/06/28 04:35:29;;;;;;;0.40;0.40;;;;;;;;;;5032789;28;20037;-62
2022/06/28 04:37:55;;;;;;;0.70;0.50;;;;;;;;;;5031045;28;20059;-63
2022/06/28 04:40:21;;;;;;;1.10;0.60;;;;;;;;;;5031841;28;20026;-62
2022/06/28 04:42:47;;;;;;;0.70;0.70;;;;;;;;;;5031335;28;20045;-62
2022/06/28 04:45:13;;;;;;;2.88;0.60;;;;;;;;;;5031659;28;20172;-62
2022/06/28 04:47:39;;;;;;;0.80;0.57;;;;;;;;;;5029349;28;20030;-63
2022/06/28 04:50:06;;;;;;;0.52;0.45;;;;;;;;;;5031267;28;20079;-62
2022/06/28 04:52:32;;;;;;;1.35;0.60;;;;;;;;;;5032273;28;20014;-62
2022/06/28 04:54:58;;;;;;;1.23;0.65;;;;;;;;;;5030001;28;20520;-63
2022/06/28 04:57:23;;;;;;;0.60;0.50;;;;;;;;;;5032061;28;20030;-62
2022/06/28 04:59:49;;;;;;;1.33;0.60;;;;;;;;;;5031549;28;20103;-61
2022/06/28 05:02:15;;;;;;;1.13;0.52;;;;;;;;;;5031457;28;20027;-62
2022/06/28 05:04:41;;;;;;;0.95;0.68;;;;;;;;;;5032233;28;20030;-61
2022/06/28 05:07:07;;;;;;;1.00;0.60;;;;;;;;;;5030923;28;20025;-62
2022/06/28 05:09:33;;;;;;;0.60;0.60;;;;;;;;;;5028077;28;20020;-62
2022/06/28 05:11:59;;;;;;;1.23;0.60;;;;;;;;;;5028340;28;20033;-57
2022/06/28 05:14:26;;;;;;;2.53;1.02;;;;;;;;;;5029030;28;20065;-62
2022/06/28 05:16:52;;;;;;;2.85;0.90;;;;;;;;;;5029941;28;20038;-61
2022/06/28 05:19:18;;;;;;;4.55;0.77;;;;;;;;;;5029662;28;20025;-62
2022/06/28 05:21:44;;;;;;;3.03;1.35;;;;;;;;;;5031183;28;20025;-62
2022/06/28 05:24:10;;;;;;;3.08;0.60;;;;;;;;;;5030232;28;20477;-62
2022/06/28 05:26:36;;;;;;;3.15;1.20;;;;;;;;;;5030634;28;20025;-68
2022/06/28 05:29:02;;;;;;;1.55;0.90;;;;;;;;;;5031032;28;20097;-57
2022/06/28 05:31:28;;;;;;;1.45;0.85;;;;;;;;;;5031428;28;20056;-62
2022/06/28 05:33:55;;;;;;;2.45;1.08;;;;;;;;;;5031586;28;20034;-60
2022/06/28 05:36:21;;;;;;;2.58;1.70;;;;;;;;;;5030493;28;20673;-60
2022/06/28 05:38:47;;;;;;;2.35;1.80;;;;;;;;;;5031498;28;20060;-60
2022/06/28 05:41:13;;;;;;;5.03;1.92;;;;;;;;;;5030158;28;20021;-60
2022/06/28 05:43:39;;;;;;;3.92;1.80;;;;;;;;;;5031240;28;20140;-67
2022/06/28 05:46:06;;;;;;;3.63;2.10;;;;;;;;;;5030174;28;20056;-59
2022/06/28 05:48:32;;;;;;;3.78;2.13;;;;;;;;;;5025155;28;20463;-61
2022/06/28 05:50:58;;;;;;;3.95;1.80;;;;;;;;;;5030891;28;20498;-62
2022/06/28 05:53:24;;;;;;;3.60;2.17;;;;;;;;;;5030072;28;20610;-62
2022/06/28 05:55:50;;;;;;;4.03;2.30;;;;;;;;;;5034283;28;20060;-63
2022/06/28 05:58:16;;;;;;;3.17;2.05;;;;;;;;;;5034330;28;20079;-62
2022/06/28 06:00:42;;;;;;;3.03;2.38;;;;;;;;;;5034857;28;20026;-62
2022/06/28 06:03:08;;;;;;;4.65;2.40;;;;;;;;;;5034252;28;20036;-59
2022/06/28 06:05:34;;;;;;;2.95;2.28;;;;;;;;;;5035061;28;20025;-62
2022/06/28 06:08:00;;;;;;;4.38;1.95;;;;;;;;;;5035039;28;20021;-61
2022/06/28 06:10:26;;;;;;;4.35;2.35;;;;;;;;;;5034145;28;20806;-63
2022/06/28 06:12:52;;;;;;;7.53;2.22;;;;;;;;;;5034800;28;20113;-63
2022/06/28 06:15:18;;;;;;;3.65;2.80;;;;;;;;;;5033694;28;20029;-64
2022/06/28 06:17:44;;;;;;;3.90;2.40;;;;;;;;;;5034702;28;20033;-63
2022/06/28 06:20:10;;;;;;;3.05;2.08;;;;;;;;;;5034227;28;20053;-66
2022/06/28 06:22:36;;;;;;;2.97;1.98;;;;;;;;;;5034990;28;20037;-67
2022/06/28 06:25:02;;;;;;;1.70;1.48;;;;;;;;;;5035153;28;20033;-66
2022/06/28 06:27:28;;;;;;;1.30;1.10;;;;;;;;;;5034358;28;20037;-66
2022/06/28 06:29:54;;;;;;;3.10;1.13;;;;;;;;;;5034532;28;20033;-64
2022/06/28 06:32:20;;;;;;;2.92;1.20;;;;;;;;;;5034056;28;20049;-66
2022/06/28 06:34:46;;;;;;;2.20;1.40;;;;;;;;;;5034618;28;20037;-66
2022/06/28 06:37:12;;;;;;;1.60;1.10;;;;;;;;;;5033716;28;20502;-65
2022/06/28 06:39:38;;;;;;;1.55;1.20;;;;;;;;;;5034834;28;20036;-64
2022/06/28 06:42:04;;;;;;;1.85;1.23;;;;;;;;;;5034409;28;20100;-59
2022/06/28 06:44:30;;;;;;;2.42;1.30;;;;;;;;;;5034247;28;20037;-65
2022/06/28 06:46:57;;;;;;;1.60;1.38;;;;;;;;;;5033703;28;20025;-64
2022/06/28 06:49:23;;;;;;;3.42;1.20;;;;;;;;;;5033994;28;20025;-63
2022/06/28 06:51:49;;;;;;;2.78;1.10;;;;;;;;;;5033941;28;20029;-64
2022/06/28 06:54:16;;;;;;;2.20;1.33;;;;;;;;;;5033849;28;20044;-64
2022/06/28 06:56:42;;;;;;;1.38;1.27;;;;;;;;;;5030516;28;20409;-65
2022/06/28 06:59:10;;;;;;;1.83;1.30;;;;;;;;;;5025364;28;20025;-64
2022/06/28 07:01:36;;;;;;;1.58;1.17;;;;;;;;;;5033385;28;20145;-63
2022/06/28 07:04:03;;;;;;;1.27;0.93;;;;;;;;;;5030436;28;20112;-65
2022/06/28 07:06:29;;;;;;;1.27;1.17;;;;;;;;;;5035355;28;20014;-65
2022/06/28 07:08:55;;;;;;;1.83;1.58;;;;;;;;;;5033693;28;20026;-66
2022/06/28 07:11:21;;;;;;;1.73;1.10;;;;;;;;;;5033589;28;20071;-65
2022/06/28 07:13:47;;;;;;;1.25;1.15;;;;;;;;;;5034335;28;20033;-65
2022/06/28 07:16:13;;;;;;;1.45;1.30;;;;;;;;;;5033108;28;20527;-64
2022/06/28 07:18:39;;;;;;;3.10;1.38;;;;;;;;;;5039389;28;20107;-65
2022/06/28 07:21:05;;;;;;;1.40;1.30;;;;;;;;;;5049862;28;20115;-58
2022/06/28 07:23:31;;;;;;;1.88;1.23;;;;;;;;;;5033040;28;20064;-65
2022/06/28 07:25:57;;;;;;;2.42;1.40;;;;;;;;;;5033280;28;20044;-64
2022/06/28 07:28:23;;;;;;;2.33;1.33;;;;;;;;;;5032980;28;20509;-66
2022/06/28 07:30:49;;;;;;;1.58;1.15;;;;;;;;;;5033174;28;20030;-65
2022/06/28 07:33:15;;;;;;;1.52;1.30;;;;;;;;;;5032179;28;20525;-65
2022/06/28 07:35:41;;;;;;;2.08;1.58;;;;;;;;;;5033513;28;20104;-65
2022/06/28 07:38:07;;;;;;;2.15;1.45;;;;;;;;;;5033044;28;20049;-57
2022/06/28 07:40:33;;;;;;;3.45;1.30;;;;;;;;;;5033566;28;20026;-65
2022/06/28 07:42:59;;;;;;;1.50;1.20;;;;;;;;;;5033374;28;20044;-65
2022/06/28 07:45:25;;;;;;;2.28;1.38;;;;;;;;;;5032224;28;20104;-65
2022/06/28 07:47:51;;;;;;;1.65;1.10;;;;;;;;;;5012184;28;20033;-61
2022/06/28 07:53:03;;;;;;;3.30;1.30;;;;;;;;;;5032825;28;20118;-64
2022/06/28 07:55:30;;;;;;;2.72;1.50;;;;;;;;;;5032408;28;20033;-64
2022/06/28 07:57:56;;;;;;;1.98;1.35;;;;;;;;;;5032674;28;20025;-63
2022/06/28 08:00:23;;;;;;;2.05;1.33;;;;;;;;;;5030529;28;20029;-64
2022/06/28 08:02:49;;;;;;;1.42;1.20;;;;;;;;;;5033166;28;20034;-64
2022/06/28 08:05:15;;;;;;;1.55;1.45;;;;;;;;;;5031871;28;20474;-64
2022/06/28 08:07:41;;;;;;;1.65;1.27;;;;;;;;;;5032319;28;20021;-64
2022/06/28 08:10:08;;;;;;;1.48;1.35;;;;;;;;;;5032192;28;20033;-58
2022/06/28 08:12:35;;;;;;;2.58;1.23;;;;;;;;;;5032265;28;20055;-63
2022/06/28 08:15:01;;;;;;;1.65;1.20;;;;;;;;;;5032746;28;20053;-64
2022/06/28 08:17:27;;;;;;;2.28;1.23;;;;;;;;;;5030975;28;20600;-64
2022/06/28 08:19:53;;;;;;;2.13;1.40;;;;;;;;;;5032558;28;20037;-61
2022/06/28 08:22:19;;;;;;;2.55;1.58;;;;;;;;;;5031425;28;20087;-64
2022/06/28 08:24:45;;;;;;;1.55;1.17;;;;;;;;;;5032836;28;20029;-64
2022/06/28 08:27:11;;;;;;;2.58;1.50;;;;;;;;;;5031748;28;20143;-61
2022/06/28 08:29:37;;;;;;;1.88;1.50;;;;;;;;;;5032933;28;20100;-64
2022/06/28 08:32:03;;;;;;;1.67;1.40;;;;;;;;;;5031119;28;20141;-62
2022/06/28 08:34:29;;;;;;;2.50;1.55;;;;;;;;;;5023889;28;20033;-64
2022/06/28 08:36:56;;;;;;;4.25;1.35;;;;;;;;;;5032548;28;20026;-64
2022/06/28 08:39:22;;;;;;;1.85;1.70;;;;;;;;;;5031159;28;20067;-64
2022/06/28 08:41:48;;;;;;;1.70;1.20;;;;;;;;;;5031688;28;20526;-64
2022/06/28 08:44:15;;;;;;;1.60;1.50;;;;;;;;;;5031429;28;20037;-63
2022/06/28 08:46:41;;;;;;;2.15;1.65;;;;;;;;;;5029637;28;20037;-64
2022/06/28 08:49:13;;;;;;;1.80;1.30;;;;;;;;;;5030302;28;20053;-60
2022/06/28 08:51:39;;;;;;;2.17;1.38;;;;;;;;;;5032039;28;20026;-64
2022/06/28 08:54:05;;;;;;;1.98;1.38;;;;;;;;;;5031964;28;20034;-64
2022/06/28 08:56:31;;;;;;;1.42;1.33;;;;;;;;;;5031346;28;20059;-64
2022/06/28 08:58:58;;;;;;;1.73;1.63;;;;;;;;;;5031889;28;20049;-64
2022/06/28 09:01:24;;;;;;;1.42;1.33;;;;;;;;;;5031069;28;20034;-64
2022/06/28 09:03:51;;;;;;;2.60;1.40;;;;;;;;;;5031932;28;20091;-64
2022/06/28 09:06:17;;;;;;;1.73;1.30;;;;;;;;;;5031263;28;20026;-64
2022/06/28 09:08:43;;;;;;;1.45;1.35;;;;;;;;;;5031470;28;20040;-64
2022/06/28 09:11:09;;;;;;;2.08;1.17;;;;;;;;;;5031986;28;20026;-58
2022/06/28 09:13:36;;;;;;;1.85;1.45;;;;;;;;;;5031222;28;20125;-64
2022/06/28 09:16:03;;;;;;;3.83;1.83;;;;;;;;;;5032037;28;20024;-64
2022/06/28 09:18:38;;;;;;;1.70;1.27;;;;;;;;;;5030474;28;20059;-64
2022/06/28 09:21:05;;;;;;;1.15;1.05;;;;;;;;;;5031920;28;20033;-64
2022/06/28 09:23:32;;;;;;;1.80;1.35;;;;;;;;;;5030511;28;20056;-64
2022/06/28 09:26:03;;;;;;;2.42;1.27;;;;;;;;;;5031022;28;20049;-64
2022/06/28 09:28:30;;;;;;;2.47;1.27;;;;;;;;;;5030824;28;20038;-64
2022/06/28 09:31:14;;;;;;;1.88;1.20;;;;;;;;;;5031597;28;20426;-64
2022/06/28 09:33:41;;;;;;;1.50;1.23;;;;;;;;;;5030988;28;20086;-64
2022/06/28 09:36:09;;;;;;;1.58;1.35;;;;;;;;;;5030491;28;20021;-64
2022/06/28 09:38:35;;;;;;;1.20;1.10;;;;;;;;;;5030885;28;20048;-64
2022/06/28 09:41:02;;;;;;;3.03;0.90;;;;;;;;;;5031405;28;20045;-64
2022/06/28 09:43:32;;;;;;;2.90;1.20;;;;;;;;;;5030737;28;20033;-64
2022/06/28 09:45:58;;;;;;;2.67;1.00;;;;;;;;;;5031358;28;20113;-64
2022/06/28 09:48:24;;;;;;;2.10;1.45;;;;;;;;;;5024902;28;20033;-64
2022/06/28 09:50:57;;;;;;;1.67;1.40;;;;;;;;;;5031128;28;20025;-64
2022/06/28 09:53:25;;;;;;;1.65;1.05;;;;;;;;;;5030684;28;20048;-64
2022/06/28 09:55:52;;;;;;;2.97;1.45;;;;;;;;;;5030819;28;20025;-63
2022/06/28 09:58:19;;;;;;;4.15;1.35;;;;;;;;;;5029989;28;20498;-62
2022/06/28 10:00:45;;;;;;;1.30;1.05;;;;;;;;;;5031416;28;20037;-64
2022/06/28 10:03:14;;;;;;;1.75;1.15;;;;;;;;;;5030646;28;20026;-58
2022/06/28 10:05:40;;;;;;;1.20;1.10;;;;;;;;;;5031058;28;20030;-64
2022/06/28 10:08:07;;;;;;;2.13;1.10;;;;;;;;;;5030930;28;20025;-64
2022/06/28 10:10:33;;;;;;;1.23;0.90;;;;;;;;;;5030400;28;20037;-64
2022/06/28 10:15:48;;;;;;;2.90;1.00;;;;;;;;;;5030924;28;20504;-64
2022/06/28 10:18:19;;;;;;;1.25;1.10;;;;;;;;;;5030490;28;20034;-58
2022/06/28 10:20:46;;;;;;;1.25;1.00;;;;;;;;;;5031120;28;20084;-64
2022/06/28 10:23:36;;;;;;;1.55;1.23;;;;;;;;;;5030532;28;20053;-58
2022/06/28 10:26:11;;;;;;;2.72;1.17;;;;;;;;;;5030576;28;20029;-63
2022/06/28 10:28:41;;;;;;;1.67;1.20;;;;;;;;;;5030018;28;20544;-64
2022/06/28 10:31:25;;;;;;;2.08;0.90;;;;;;;;;;5030422;28;20112;-64
2022/06/28 10:33:58;;;;;;;2.33;1.23;;;;;;;;;;5030006;28;20505;-60
2022/06/28 10:36:25;;;;;;;3.78;1.30;;;;;;;;;;5029132;28;20026;-64
2022/06/28 10:39:06;;;;;;;2.10;1.05;;;;;;;;;;5030606;28;20026;-65
2022/06/28 10:41:42;;;;;;;1.20;1.10;;;;;;;;;;5028262;28;20583;-62
2022/06/28 10:44:11;;;;;;;1.27;1.00;;;;;;;;;;5028077;28;20029;-64
2022/06/28 10:46:37;;;;;;;2.65;0.98;;;;;;;;;;5032296;28;20108;-64
2022/06/28 10:49:04;;;;;;;4.00;1.20;;;;;;;;;;5034144;28;20029;-63
2022/06/28 10:51:31;;;;;;;2.55;1.00;;;;;;;;;;5033554;28;20022;-65
2022/06/28 10:53:57;;;;;;;1.35;1.10;;;;;;;;;;5034465;28;20045;-64
2022/06/28 10:56:24;;;;;;;1.10;0.93;;;;;;;;;;5033160;28;20026;-64
2022/06/28 10:59:00;;;;;;;1.10;0.80;;;;;;;;;;5034066;28;20025;-64
2022/06/28 11:01:42;;;;;;;1.20;1.10;;;;;;;;;;5033253;28;20025;-64
2022/06/28 11:04:12;;;;;;;1.08;0.93;;;;;;;;;;5034063;28;20532;-64
2022/06/28 11:06:45;;;;;;;1.48;1.00;;;;;;;;;;5032714;28;20100;-64
2022/06/28 11:09:16;;;;;;;0.93;0.70;;;;;;;;;;5033610;28;20482;-64
2022/06/28 11:12:00;;;;;;;1.05;0.95;;;;;;;;;;5034035;28;20025;-64
2022/06/28 11:14:36;;;;;;;2.17;1.50;;;;;;;;;;5033763;28;20064;-63
2022/06/28 11:17:02;;;;;;;1.60;0.90;;;;;;;;;;5034305;28;20024;-64
2022/06/28 11:19:28;;;;;;;4.82;0.90;;;;;;;;;;5034036;28;20026;-64
2022/06/28 11:21:55;;;;;;;1.73;1.00;;;;;;;;;;5034457;28;20025;-64
2022/06/28 11:24:24;;;;;;;1.55;1.17;;;;;;;;;;5033747;28;20026;-63
2022/06/28 11:29:35;;;;;;;2.10;0.90;;;;;;;;;;5033661;28;20024;-64
2022/06/28 11:32:01;;;;;;;1.95;1.27;;;;;;;;;;5034117;28;20049;-64
2022/06/28 11:34:27;;;;;;;1.13;0.90;;;;;;;;;;5033432;28;20033;-64
2022/06/28 11:36:56;;;;;;;1.25;1.00;;;;;;;;;;5033680;28;20546;-64
2022/06/28 11:39:23;;;;;;;1.23;1.10;;;;;;;;;;5033395;28;20033;-64
2022/06/28 11:41:50;;;;;;;2.47;1.02;;;;;;;;;;5034204;28;20022;-65
2022/06/28 11:44:16;;;;;;;0.90;0.85;;;;;;;;;;5033560;28;20056;-57
2022/06/28 11:46:43;;;;;;;1.00;0.80;;;;;;;;;;5031019;28;20026;-64
2022/06/28 11:49:09;;;;;;;5.70;1.13;;;;;;;;;;5015203;28;20045;-64
2022/06/28 11:51:35;;;;;;;2.08;1.20;;;;;;;;;;5031234;28;20636;-64
2022/06/28 11:54:06;;;;;;;2.17;1.08;;;;;;;;;;5032414;28;20039;-64
2022/06/28 11:56:45;;;;;;;0.80;0.80;;;;;;;;;;5032177;28;20032;-64
2022/06/28 11:59:12;;;;;;;1.63;0.85;;;;;;;;;;5032422;28;20029;-64
2022/06/28 12:01:39;;;;;;;0.70;0.70;;;;;;;;;;5032317;28;20092;-64
2022/06/28 12:04:08;;;;;;;1.02;0.88;;;;;;;;;;5032938;28;20087;-64
2022/06/28 12:06:35;;;;;;;1.52;0.95;;;;;;;;;;5031938;28;20520;-64
2022/06/28 12:09:05;;;;;;;1.20;0.90;;;;;;;;;;5032534;28;20041;-64
2022/06/28 12:11:44;;;;;;;1.42;1.00;;;;;;;;;;5032122;28;20544;-64
2022/06/28 12:14:18;;;;;;;1.00;0.90;;;;;;;;;;5032781;28;20033;-65
2022/06/28 12:16:46;;;;;;;0.60;0.60;;;;;;;;;;5032939;28;20038;-65
2022/06/28 12:19:15;;;;;;;1.55;0.90;;;;;;;;;;5031442;28;20037;-64
2022/06/28 12:21:58;;;;;;;1.38;0.93;;;;;;;;;;5032270;28;20029;-65
2022/06/28 12:24:43;;;;;;;0.73;0.73;;;;;;;;;;5031650;28;20027;-64
2022/06/28 12:27:19;;;;;;;1.10;0.90;;;;;;;;;;5032496;28;20040;-64
2022/06/28 12:29:46;;;;;;;0.95;0.73;;;;;;;;;;5032253;28;20017;-64
2022/06/28 12:32:12;;;;;;;2.05;0.80;;;;;;;;;;5031879;28;20129;-64
2022/06/28 12:34:40;;;;;;;0.80;0.60;;;;;;;;;;5031730;28;20070;-64
2022/06/28 12:37:06;;;;;;;1.00;0.70;;;;;;;;;;5032065;28;20057;-64
2022/06/28 12:39:32;;;;;;;1.10;0.70;;;;;;;;;;5031533;28;20435;-64
2022/06/28 12:41:58;;;;;;;1.60;0.90;;;;;;;;;;5032036;28;20029;-64
2022/06/28 12:44:24;;;;;;;0.82;0.63;;;;;;;;;;5031600;28;20041;-63
2022/06/28 12:46:53;;;;;;;1.08;0.90;;;;;;;;;;5031457;28;20364;-64
2022/06/28 12:49:19;;;;;;;1.95;0.90;;;;;;;;;;5030786;28;20064;-58
2022/06/28 12:51:46;;;;;;;0.80;0.60;;;;;;;;;;5031620;28;20033;-64
2022/06/28 12:54:12;;;;;;;1.13;0.80;;;;;;;;;;5032247;28;20109;-64
2022/06/28 12:56:38;;;;;;;0.55;0.55;;;;;;;;;;5030678;28;20113;-63
2022/06/28 12:59:05;;;;;;;0.93;0.77;;;;;;;;;;5031771;28;20032;-64
2022/06/28 13:01:31;;;;;;;1.00;0.90;;;;;;;;;;5030650;28;20033;-64
2022/06/28 13:03:57;;;;;;;2.33;0.90;;;;;;;;;;5031748;28;20029;-64
2022/06/28 13:06:23;;;;;;;1.33;0.88;;;;;;;;;;5030284;28;20025;-63
2022/06/28 13:08:49;;;;;;;1.33;0.52;;;;;;;;;;5030638;28;20028;-64
2022/06/28 13:11:15;;;;;;;1.35;0.60;;;;;;;;;;5031663;28;20037;-65
2022/06/28 13:13:41;;;;;;;0.85;0.60;;;;;;;;;;5031127;28;20028;-65
2022/06/28 13:16:07;;;;;;;1.30;0.73;;;;;;;;;;5031581;28;20029;-64
2022/06/28 13:18:33;;;;;;;1.70;0.70;;;;;;;;;;5030329;28;20025;-64
2022/06/28 13:21:00;;;;;;;0.82;0.75;;;;;;;;;;5031733;28;20029;-64
2022/06/28 13:23:26;;;;;;;2.25;0.60;;;;;;;;;;5030549;28;20065;-64
2022/06/28 13:25:53;;;;;;;1.35;0.70;;;;;;;;;;5031443;28;20033;-64
2022/06/28 13:28:19;;;;;;;0.75;0.60;;;;;;;;;;5030783;28;20939;-58
2022/06/28 13:30:45;;;;;;;1.55;0.80;;;;;;;;;;5030897;28;20087;-65
2022/06/28 13:33:12;;;;;;;1.10;0.70;;;;;;;;;;5031767;28;20056;-64
2022/06/28 13:35:39;;;;;;;0.85;0.80;;;;;;;;;;5030673;28;20154;-64
2022/06/28 13:38:05;;;;;;;1.02;0.68;;;;;;;;;;5031338;28;20486;-64
2022/06/28 13:40:31;;;;;;;1.48;0.68;;;;;;;;;;5030176;28;20025;-65
2022/06/28 13:42:57;;;;;;;0.98;0.85;;;;;;;;;;5031595;28;20093;-64
2022/06/28 13:45:23;;;;;;;1.80;0.98;;;;;;;;;;5031033;28;20033;-58
2022/06/28 13:47:49;;;;;;;0.80;0.70;;;;;;;;;;5031380;28;20475;-64
2022/06/28 13:50:16;;;;;;;4.28;0.88;;;;;;;;;;5031208;28;20058;-64
2022/06/28 13:52:45;;;;;;;1.15;0.60;;;;;;;;;;5030654;28;20037;-64
2022/06/28 13:55:12;;;;;;;0.68;0.68;;;;;;;;;;5031135;28;20125;-64
2022/06/28 13:57:39;;;;;;;0.77;0.68;;;;;;;;;;5030230;28;20038;-64
2022/06/28 14:00:08;;;;;;;0.70;0.60;;;;;;;;;;5030458;28;20030;-64
2022/06/28 14:02:35;;;;;;;1.17;0.80;;;;;;;;;;5030488;28;20025;-64
2022/06/28 14:05:01;;;;;;;1.08;0.60;;;;;;;;;;5031373;28;20183;-63
2022/06/28 14:07:27;;;;;;;2.50;0.55;;;;;;;;;;5030191;28;20556;-63
2022/06/28 14:09:53;;;;;;;0.55;0.47;;;;;;;;;;5030634;28;20466;-59
2022/06/28 14:12:19;;;;;;;1.25;0.68;;;;;;;;;;5030191;28;20064;-64
2022/06/28 14:14:45;;;;;;;1.38;0.70;;;;;;;;;;5027972;28;20472;-62
2022/06/28 14:17:11;;;;;;;1.55;0.52;;;;;;;;;;5033272;28;20021;-64
2022/06/28 14:19:38;;;;;;;2.15;0.82;;;;;;;;;;5031654;28;20036;-63
2022/06/28 14:22:04;;;;;;;4.05;0.95;;;;;;;;;;5032885;28;21427;-66
2022/06/28 14:24:30;;;;;;;3.95;1.58;;;;;;;;;;5025429;28;20498;-66
2022/06/28 14:26:56;;;;;;;4.30;1.00;;;;;;;;;;5026598;28;20052;-67
2022/06/28 14:29:24;;;;;;;3.25;0.70;;;;;;;;;;5026205;28;20079;-58
2022/06/28 14:31:50;;;;;;;3.15;1.00;;;;;;;;;;5021944;28;20066;-62
2022/06/28 14:34:17;;;;;;;2.30;1.48;;;;;;;;;;5002247;28;20037;-61
2022/06/28 14:36:43;;;;;;;2.72;1.13;;;;;;;;;;5002125;28;20014;-66
2022/06/28 14:39:09;;;;;;;1.52;0.70;;;;;;;;;;5002889;28;20030;-61
2022/06/28 14:41:37;;;;;;;0.93;0.70;;;;;;;;;;4997573;28;20809;-66
2022/06/28 14:44:03;;;;;;;1.15;0.80;;;;;;;;;;5002731;28;20044;-68
2022/06/28 14:46:29;;;;;;;1.42;0.82;;;;;;;;;;5006345;28;20088;-64
2022/06/28 14:48:55;;;;;;;1.13;0.55;;;;;;;;;;5014136;28;20858;-65
2022/06/28 14:51:22;;;;;;;0.90;0.68;;;;;;;;;;5010134;28;20014;-59
2022/06/28 14:53:49;;;;;;;1.05;0.68;;;;;;;;;;5011550;28;20040;-61
2022/06/28 14:56:15;;;;;;;1.10;0.80;;;;;;;;;;5003940;28;20442;-62
2022/06/28 14:58:41;;;;;;;1.00;0.65;;;;;;;;;;5009816;28;20041;-60